sensor_id;sensor_type;location;lat;lon;timestamp;P1;durP1;ratioP1;P2;durP2;ratioP2
46415;SDS011;32620;51.704;7.822;2024-03-02T00:02:24;13.80;;;7.78;;
46415;SDS011;32620;51.704;7.822;2024-03-02T00:04:50;8.40;;;5.07;;
46415;SDS011;32620;51.704;7.822;2024-03-02T00:07:16;5.10;;;3.50;;
46415;SDS011;32620;51.704;7.822;2024-03-02T00:09:42;5.78;;;4.50;;
46415;SDS011;32620;51.704;7.822;2024-03-02T00:12:07;7.10;;;4.05;;
46415;SDS011;32620;51.704;7.822;2024-03-02T00:14:35;9.52;;;5.55;;
46415;SDS011;32620;51.704;7.822;2024-03-02T00:17:00;14.85;;;7.28;;
46415;SDS011;32620;51.704;7.822;2024-03-02T00:19:26;16.80;;;9.00;;
46415;SDS011;32620;51.704;7.822;2024-03-02T00:21:51;16.02;;;9.13;;
46415;SDS011;32620;51.704;7.822;2024-03-02T00:24:18;12.57;;;8.15;;
46415;SDS011;32620;51.704;7.822;2024-03-02T00:26:46;7.20;;;5.18;;
46415;SDS011;32620;51.704;7.822;2024-03-02T00:29:13;6.85;;;4.68;;
46415;SDS011;32620;51.704;7.822;2024-03-02T00:31:43;7.05;;;5.40;;
46415;SDS011;32620;51.704;7.822;2024-03-02T00:34:08;10.35;;;4.68;;
46415;SDS011;32620;51.704;7.822;2024-03-02T00:36:36;7.55;;;4.70;;
46415;SDS011;32620;51.704;7.822;2024-03-02T00:39:01;6.15;;;4.68;;
46415;SDS011;32620;51.704;7.822;2024-03-02T00:41:29;6.30;;;4.65;;
46415;SDS011;32620;51.704;7.822;2024-03-02T00:43:57;6.70;;;3.97;;
46415;SDS011;32620;51.704;7.822;2024-03-02T00:46:39;5.82;;;4.20;;
46415;SDS011;32620;51.704;7.822;2024-03-02T00:49:11;9.38;;;4.35;;
46415;SDS011;32620;51.704;7.822;2024-03-02T00:51:53;5.70;;;4.53;;
46415;SDS011;32620;51.704;7.822;2024-03-02T00:54:20;8.65;;;4.80;;
46415;SDS011;32620;51.704;7.822;2024-03-02T00:56:48;8.02;;;4.53;;
46415;SDS011;32620;51.704;7.822;2024-03-02T00:59:14;6.60;;;4.50;;
46415;SDS011;32620;51.704;7.822;2024-03-02T01:01:40;7.93;;;4.57;;
46415;SDS011;32620;51.704;7.822;2024-03-02T01:04:07;5.88;;;4.53;;
46415;SDS011;32620;51.704;7.822;2024-03-02T01:06:32;6.78;;;5.13;;
46415;SDS011;32620;51.704;7.822;2024-03-02T01:08:58;6.93;;;4.53;;
46415;SDS011;32620;51.704;7.822;2024-03-02T01:11:24;7.63;;;5.20;;
46415;SDS011;32620;51.704;7.822;2024-03-02T01:13:50;9.52;;;5.05;;
46415;SDS011;32620;51.704;7.822;2024-03-02T01:16:16;7.65;;;4.70;;
46415;SDS011;32620;51.704;7.822;2024-03-02T01:18:42;7.47;;;5.00;;
46415;SDS011;32620;51.704;7.822;2024-03-02T01:21:08;8.68;;;5.32;;
46415;SDS011;32620;51.704;7.822;2024-03-02T01:23:33;6.80;;;4.43;;
46415;SDS011;32620;51.704;7.822;2024-03-02T01:25:59;11.18;;;6.15;;
46415;SDS011;32620;51.704;7.822;2024-03-02T01:28:24;8.23;;;5.20;;
46415;SDS011;32620;51.704;7.822;2024-03-02T01:30:50;7.18;;;4.72;;
46415;SDS011;32620;51.704;7.822;2024-03-02T01:33:17;6.85;;;4.88;;
46415;SDS011;32620;51.704;7.822;2024-03-02T01:35:43;6.30;;;4.72;;
46415;SDS011;32620;51.704;7.822;2024-03-02T01:38:08;6.88;;;4.90;;
46415;SDS011;32620;51.704;7.822;2024-03-02T01:40:34;6.68;;;4.22;;
46415;SDS011;32620;51.704;7.822;2024-03-02T01:43:01;7.95;;;4.72;;
46415;SDS011;32620;51.704;7.822;2024-03-02T01:45:27;6.28;;;4.43;;
46415;SDS011;32620;51.704;7.822;2024-03-02T01:47:53;6.38;;;4.30;;
46415;SDS011;32620;51.704;7.822;2024-03-02T01:50:27;7.25;;;4.43;;
46415;SDS011;32620;51.704;7.822;2024-03-02T01:52:53;8.68;;;4.90;;
46415;SDS011;32620;51.704;7.822;2024-03-02T01:55:20;9.00;;;4.72;;
46415;SDS011;32620;51.704;7.822;2024-03-02T01:57:45;6.75;;;4.80;;
46415;SDS011;32620;51.704;7.822;2024-03-02T02:00:12;6.60;;;4.28;;
46415;SDS011;32620;51.704;7.822;2024-03-02T02:02:38;5.72;;;4.40;;
46415;SDS011;32620;51.704;7.822;2024-03-02T02:05:04;7.13;;;4.55;;
46415;SDS011;32620;51.704;7.822;2024-03-02T02:07:30;7.00;;;4.03;;
46415;SDS011;32620;51.704;7.822;2024-03-02T02:09:56;6.35;;;4.50;;
46415;SDS011;32620;51.704;7.822;2024-03-02T02:12:22;6.20;;;4.13;;
46415;SDS011;32620;51.704;7.822;2024-03-02T02:14:48;6.75;;;4.47;;
46415;SDS011;32620;51.704;7.822;2024-03-02T02:17:15;8.70;;;4.50;;
46415;SDS011;32620;51.704;7.822;2024-03-02T02:19:41;7.13;;;4.43;;
46415;SDS011;32620;51.704;7.822;2024-03-02T02:22:07;8.00;;;4.95;;
46415;SDS011;32620;51.704;7.822;2024-03-02T02:24:33;5.72;;;4.03;;
46415;SDS011;32620;51.704;7.822;2024-03-02T02:26:59;6.68;;;4.40;;
46415;SDS011;32620;51.704;7.822;2024-03-02T02:29:24;8.75;;;4.85;;
46415;SDS011;32620;51.704;7.822;2024-03-02T02:31:50;6.18;;;4.38;;
46415;SDS011;32620;51.704;7.822;2024-03-02T02:34:15;7.32;;;4.40;;
46415;SDS011;32620;51.704;7.822;2024-03-02T02:36:41;7.50;;;4.15;;
46415;SDS011;32620;51.704;7.822;2024-03-02T02:39:09;6.82;;;4.28;;
46415;SDS011;32620;51.704;7.822;2024-03-02T02:41:38;6.05;;;4.40;;
46415;SDS011;32620;51.704;7.822;2024-03-02T02:44:04;9.93;;;5.15;;
46415;SDS011;32620;51.704;7.822;2024-03-02T02:46:29;7.90;;;4.25;;
46415;SDS011;32620;51.704;7.822;2024-03-02T02:48:55;7.22;;;4.53;;
46415;SDS011;32620;51.704;7.822;2024-03-02T02:51:21;9.18;;;4.30;;
46415;SDS011;32620;51.704;7.822;2024-03-02T02:53:46;5.65;;;4.40;;
46415;SDS011;32620;51.704;7.822;2024-03-02T02:56:12;7.75;;;4.50;;
46415;SDS011;32620;51.704;7.822;2024-03-02T02:58:37;5.75;;;4.22;;
46415;SDS011;32620;51.704;7.822;2024-03-02T03:01:04;6.40;;;4.18;;
46415;SDS011;32620;51.704;7.822;2024-03-02T03:03:30;9.77;;;4.55;;
46415;SDS011;32620;51.704;7.822;2024-03-02T03:05:55;7.40;;;4.70;;
46415;SDS011;32620;51.704;7.822;2024-03-02T03:08:21;8.45;;;4.78;;
46415;SDS011;32620;51.704;7.822;2024-03-02T03:10:48;9.88;;;4.72;;
46415;SDS011;32620;51.704;7.822;2024-03-02T03:13:14;6.72;;;4.97;;
46415;SDS011;32620;51.704;7.822;2024-03-02T03:15:40;8.43;;;4.70;;
46415;SDS011;32620;51.704;7.822;2024-03-02T03:18:05;9.10;;;5.07;;
46415;SDS011;32620;51.704;7.822;2024-03-02T03:20:32;7.25;;;4.55;;
46415;SDS011;32620;51.704;7.822;2024-03-02T03:22:58;9.07;;;4.75;;
46415;SDS011;32620;51.704;7.822;2024-03-02T03:25:24;8.57;;;4.75;;
46415;SDS011;32620;51.704;7.822;2024-03-02T03:27:50;7.80;;;4.88;;
46415;SDS011;32620;51.704;7.822;2024-03-02T03:30:17;7.13;;;4.38;;
46415;SDS011;32620;51.704;7.822;2024-03-02T03:32:43;8.95;;;5.20;;
46415;SDS011;32620;51.704;7.822;2024-03-02T03:35:09;6.82;;;4.03;;
46415;SDS011;32620;51.704;7.822;2024-03-02T03:37:35;11.23;;;5.78;;
46415;SDS011;32620;51.704;7.822;2024-03-02T03:40:01;12.32;;;5.55;;
46415;SDS011;32620;51.704;7.822;2024-03-02T03:42:27;8.85;;;4.95;;
46415;SDS011;32620;51.704;7.822;2024-03-02T03:44:53;8.15;;;4.80;;
46415;SDS011;32620;51.704;7.822;2024-03-02T03:47:19;7.57;;;5.00;;
46415;SDS011;32620;51.704;7.822;2024-03-02T03:49:45;6.70;;;4.50;;
46415;SDS011;32620;51.704;7.822;2024-03-02T03:52:10;6.43;;;4.22;;
46415;SDS011;32620;51.704;7.822;2024-03-02T03:54:36;6.55;;;4.80;;
46415;SDS011;32620;51.704;7.822;2024-03-02T03:57:03;6.57;;;4.65;;
46415;SDS011;32620;51.704;7.822;2024-03-02T03:59:29;8.48;;;4.63;;
46415;SDS011;32620;51.704;7.822;2024-03-02T04:01:55;6.78;;;4.30;;
46415;SDS011;32620;51.704;7.822;2024-03-02T04:04:20;7.35;;;4.35;;
46415;SDS011;32620;51.704;7.822;2024-03-02T04:06:46;6.00;;;4.25;;
46415;SDS011;32620;51.704;7.822;2024-03-02T04:09:12;6.53;;;4.65;;
46415;SDS011;32620;51.704;7.822;2024-03-02T04:11:37;9.88;;;5.00;;
46415;SDS011;32620;51.704;7.822;2024-03-02T04:14:03;9.20;;;5.28;;
46415;SDS011;32620;51.704;7.822;2024-03-02T04:16:28;13.65;;;5.45;;
46415;SDS011;32620;51.704;7.822;2024-03-02T04:18:54;8.38;;;4.70;;
46415;SDS011;32620;51.704;7.822;2024-03-02T04:21:19;8.90;;;4.78;;
46415;SDS011;32620;51.704;7.822;2024-03-02T04:23:45;7.97;;;5.35;;
46415;SDS011;32620;51.704;7.822;2024-03-02T04:26:11;7.20;;;4.55;;
46415;SDS011;32620;51.704;7.822;2024-03-02T04:28:36;8.75;;;5.03;;
46415;SDS011;32620;51.704;7.822;2024-03-02T04:31:02;8.30;;;4.95;;
46415;SDS011;32620;51.704;7.822;2024-03-02T04:33:27;7.57;;;5.20;;
46415;SDS011;32620;51.704;7.822;2024-03-02T04:35:53;7.15;;;5.00;;
46415;SDS011;32620;51.704;7.822;2024-03-02T04:38:18;6.38;;;4.47;;
46415;SDS011;32620;51.704;7.822;2024-03-02T04:40:44;9.93;;;4.78;;
46415;SDS011;32620;51.704;7.822;2024-03-02T04:43:09;8.68;;;5.15;;
46415;SDS011;32620;51.704;7.822;2024-03-02T04:45:37;9.43;;;4.85;;
46415;SDS011;32620;51.704;7.822;2024-03-02T04:48:03;6.32;;;4.85;;
46415;SDS011;32620;51.704;7.822;2024-03-02T04:50:29;10.05;;;5.38;;
46415;SDS011;32620;51.704;7.822;2024-03-02T04:52:55;8.48;;;5.07;;
46415;SDS011;32620;51.704;7.822;2024-03-02T04:55:20;8.20;;;5.60;;
46415;SDS011;32620;51.704;7.822;2024-03-02T04:58:05;8.00;;;4.90;;
46415;SDS011;32620;51.704;7.822;2024-03-02T05:00:31;7.55;;;5.40;;
46415;SDS011;32620;51.704;7.822;2024-03-02T05:02:57;12.43;;;7.18;;
46415;SDS011;32620;51.704;7.822;2024-03-02T05:05:23;11.95;;;7.68;;
46415;SDS011;32620;51.704;7.822;2024-03-02T05:07:48;13.23;;;6.65;;
46415;SDS011;32620;51.704;7.822;2024-03-02T05:10:14;11.23;;;6.40;;
46415;SDS011;32620;51.704;7.822;2024-03-02T05:12:40;22.50;;;11.80;;
46415;SDS011;32620;51.704;7.822;2024-03-02T05:15:20;16.55;;;9.55;;
46415;SDS011;32620;51.704;7.822;2024-03-02T05:17:46;16.58;;;10.15;;
46415;SDS011;32620;51.704;7.822;2024-03-02T05:20:12;11.98;;;7.80;;
46415;SDS011;32620;51.704;7.822;2024-03-02T05:22:38;8.25;;;5.97;;
46415;SDS011;32620;51.704;7.822;2024-03-02T05:25:04;10.52;;;7.20;;
46415;SDS011;32620;51.704;7.822;2024-03-02T05:27:30;10.02;;;6.97;;
46415;SDS011;32620;51.704;7.822;2024-03-02T05:29:57;8.98;;;6.03;;
46415;SDS011;32620;51.704;7.822;2024-03-02T05:32:23;10.82;;;6.78;;
46415;SDS011;32620;51.704;7.822;2024-03-02T05:34:49;11.48;;;6.15;;
46415;SDS011;32620;51.704;7.822;2024-03-02T05:37:15;12.63;;;7.07;;
46415;SDS011;32620;51.704;7.822;2024-03-02T05:39:41;12.68;;;7.88;;
46415;SDS011;32620;51.704;7.822;2024-03-02T05:42:08;9.98;;;6.32;;
46415;SDS011;32620;51.704;7.822;2024-03-02T05:44:34;11.55;;;7.57;;
46415;SDS011;32620;51.704;7.822;2024-03-02T05:47:00;11.45;;;7.05;;
46415;SDS011;32620;51.704;7.822;2024-03-02T05:49:25;14.38;;;7.80;;
46415;SDS011;32620;51.704;7.822;2024-03-02T05:51:51;12.77;;;7.20;;
46415;SDS011;32620;51.704;7.822;2024-03-02T05:54:16;12.48;;;6.70;;
46415;SDS011;32620;51.704;7.822;2024-03-02T05:56:42;9.43;;;6.45;;
46415;SDS011;32620;51.704;7.822;2024-03-02T05:59:07;11.55;;;7.10;;
46415;SDS011;32620;51.704;7.822;2024-03-02T06:01:42;10.30;;;7.50;;
46415;SDS011;32620;51.704;7.822;2024-03-02T06:04:09;10.60;;;6.55;;
46415;SDS011;32620;51.704;7.822;2024-03-02T06:06:36;12.75;;;7.30;;
46415;SDS011;32620;51.704;7.822;2024-03-02T06:09:01;10.65;;;6.65;;
46415;SDS011;32620;51.704;7.822;2024-03-02T06:11:37;11.27;;;6.20;;
46415;SDS011;32620;51.704;7.822;2024-03-02T06:14:04;14.15;;;6.47;;
46415;SDS011;32620;51.704;7.822;2024-03-02T06:16:31;11.57;;;7.43;;
46415;SDS011;32620;51.704;7.822;2024-03-02T06:18:57;10.15;;;7.00;;
46415;SDS011;32620;51.704;7.822;2024-03-02T06:21:23;11.93;;;6.85;;
46415;SDS011;32620;51.704;7.822;2024-03-02T06:23:49;9.93;;;6.70;;
46415;SDS011;32620;51.704;7.822;2024-03-02T06:26:15;10.23;;;7.07;;
46415;SDS011;32620;51.704;7.822;2024-03-02T06:28:40;11.13;;;7.75;;
46415;SDS011;32620;51.704;7.822;2024-03-02T06:31:06;12.18;;;7.50;;
46415;SDS011;32620;51.704;7.822;2024-03-02T06:33:32;13.10;;;7.13;;
46415;SDS011;32620;51.704;7.822;2024-03-02T06:35:57;11.63;;;6.78;;
46415;SDS011;32620;51.704;7.822;2024-03-02T06:38:23;12.05;;;6.72;;
46415;SDS011;32620;51.704;7.822;2024-03-02T06:40:48;11.98;;;7.20;;
46415;SDS011;32620;51.704;7.822;2024-03-02T06:43:14;13.35;;;7.07;;
46415;SDS011;32620;51.704;7.822;2024-03-02T06:45:40;10.13;;;6.32;;
46415;SDS011;32620;51.704;7.822;2024-03-02T06:48:05;10.57;;;6.88;;
46415;SDS011;32620;51.704;7.822;2024-03-02T06:50:31;14.40;;;7.03;;
46415;SDS011;32620;51.704;7.822;2024-03-02T06:52:57;10.68;;;7.13;;
46415;SDS011;32620;51.704;7.822;2024-03-02T06:55:22;12.75;;;6.88;;
46415;SDS011;32620;51.704;7.822;2024-03-02T06:57:49;11.93;;;6.13;;
46415;SDS011;32620;51.704;7.822;2024-03-02T07:00:15;11.45;;;6.85;;
46415;SDS011;32620;51.704;7.822;2024-03-02T07:02:42;12.57;;;6.32;;
46415;SDS011;32620;51.704;7.822;2024-03-02T07:05:09;11.18;;;6.28;;
46415;SDS011;32620;51.704;7.822;2024-03-02T07:07:35;9.68;;;6.13;;
46415;SDS011;32620;51.704;7.822;2024-03-02T07:10:01;9.70;;;6.18;;
46415;SDS011;32620;51.704;7.822;2024-03-02T07:12:28;10.55;;;6.43;;
46415;SDS011;32620;51.704;7.822;2024-03-02T07:14:53;9.30;;;5.97;;
46415;SDS011;32620;51.704;7.822;2024-03-02T07:17:35;8.52;;;5.13;;
46415;SDS011;32620;51.704;7.822;2024-03-02T07:20:02;8.73;;;5.75;;
46415;SDS011;32620;51.704;7.822;2024-03-02T07:22:28;7.30;;;5.07;;
46415;SDS011;32620;51.704;7.822;2024-03-02T07:24:54;8.70;;;5.15;;
46415;SDS011;32620;51.704;7.822;2024-03-02T07:27:20;8.63;;;4.90;;
46415;SDS011;32620;51.704;7.822;2024-03-02T07:29:46;8.88;;;5.35;;
46415;SDS011;32620;51.704;7.822;2024-03-02T07:32:11;6.68;;;5.18;;
46415;SDS011;32620;51.704;7.822;2024-03-02T07:34:37;8.57;;;5.05;;
46415;SDS011;32620;51.704;7.822;2024-03-02T07:37:03;7.65;;;4.65;;
46415;SDS011;32620;51.704;7.822;2024-03-02T07:39:29;6.97;;;4.80;;
46415;SDS011;32620;51.704;7.822;2024-03-02T07:41:55;9.80;;;5.03;;
46415;SDS011;32620;51.704;7.822;2024-03-02T07:44:21;7.88;;;4.55;;
46415;SDS011;32620;51.704;7.822;2024-03-02T07:46:46;8.82;;;5.15;;
46415;SDS011;32620;51.704;7.822;2024-03-02T07:49:14;7.90;;;5.07;;
46415;SDS011;32620;51.704;7.822;2024-03-02T07:51:40;10.10;;;5.28;;
46415;SDS011;32620;51.704;7.822;2024-03-02T07:54:06;7.80;;;4.80;;
46415;SDS011;32620;51.704;7.822;2024-03-02T07:56:31;8.63;;;4.70;;
46415;SDS011;32620;51.704;7.822;2024-03-02T07:58:57;6.78;;;4.72;;
46415;SDS011;32620;51.704;7.822;2024-03-02T08:01:26;9.60;;;4.70;;
46415;SDS011;32620;51.704;7.822;2024-03-02T08:03:52;7.45;;;4.82;;
46415;SDS011;32620;51.704;7.822;2024-03-02T08:06:18;8.23;;;4.93;;
46415;SDS011;32620;51.704;7.822;2024-03-02T08:08:46;6.18;;;4.30;;
46415;SDS011;32620;51.704;7.822;2024-03-02T08:11:12;9.48;;;4.88;;
46415;SDS011;32620;51.704;7.822;2024-03-02T08:13:37;6.82;;;4.88;;
46415;SDS011;32620;51.704;7.822;2024-03-02T08:16:03;6.72;;;4.70;;
46415;SDS011;32620;51.704;7.822;2024-03-02T08:18:31;6.65;;;5.10;;
46415;SDS011;32620;51.704;7.822;2024-03-02T08:20:57;6.50;;;4.63;;
46415;SDS011;32620;51.704;7.822;2024-03-02T08:23:23;7.47;;;4.78;;
46415;SDS011;32620;51.704;7.822;2024-03-02T08:25:48;8.15;;;5.05;;
46415;SDS011;32620;51.704;7.822;2024-03-02T08:28:14;6.07;;;4.80;;
46415;SDS011;32620;51.704;7.822;2024-03-02T08:30:40;6.85;;;5.13;;
46415;SDS011;32620;51.704;7.822;2024-03-02T08:33:05;7.05;;;4.53;;
46415;SDS011;32620;51.704;7.822;2024-03-02T08:35:31;8.60;;;4.68;;
46415;SDS011;32620;51.704;7.822;2024-03-02T08:38:00;6.70;;;4.75;;
46415;SDS011;32620;51.704;7.822;2024-03-02T08:40:26;8.40;;;4.55;;
46415;SDS011;32620;51.704;7.822;2024-03-02T08:42:52;7.18;;;4.13;;
46415;SDS011;32620;51.704;7.822;2024-03-02T08:45:18;6.32;;;4.20;;
46415;SDS011;32620;51.704;7.822;2024-03-02T08:47:45;6.57;;;4.13;;
46415;SDS011;32620;51.704;7.822;2024-03-02T08:50:11;7.15;;;4.00;;
46415;SDS011;32620;51.704;7.822;2024-03-02T08:52:36;5.65;;;4.07;;
46415;SDS011;32620;51.704;7.822;2024-03-02T08:55:02;5.75;;;4.20;;
46415;SDS011;32620;51.704;7.822;2024-03-02T08:57:28;4.75;;;3.83;;
46415;SDS011;32620;51.704;7.822;2024-03-02T08:59:53;6.97;;;4.32;;
46415;SDS011;32620;51.704;7.822;2024-03-02T09:02:19;6.78;;;4.05;;
46415;SDS011;32620;51.704;7.822;2024-03-02T09:04:44;5.97;;;3.60;;
46415;SDS011;32620;51.704;7.822;2024-03-02T09:07:10;4.97;;;3.75;;
46415;SDS011;32620;51.704;7.822;2024-03-02T09:09:36;5.15;;;3.75;;
46415;SDS011;32620;51.704;7.822;2024-03-02T09:12:03;5.93;;;3.65;;
46415;SDS011;32620;51.704;7.822;2024-03-02T09:14:29;4.60;;;3.40;;
46415;SDS011;32620;51.704;7.822;2024-03-02T09:16:55;6.03;;;3.30;;
46415;SDS011;32620;51.704;7.822;2024-03-02T09:19:20;4.57;;;3.33;;
46415;SDS011;32620;51.704;7.822;2024-03-02T09:21:46;5.25;;;3.47;;
46415;SDS011;32620;51.704;7.822;2024-03-02T09:24:12;3.75;;;3.13;;
46415;SDS011;32620;51.704;7.822;2024-03-02T09:26:37;5.80;;;3.70;;
46415;SDS011;32620;51.704;7.822;2024-03-02T09:29:03;5.63;;;3.70;;
46415;SDS011;32620;51.704;7.822;2024-03-02T09:31:29;6.47;;;3.80;;
46415;SDS011;32620;51.704;7.822;2024-03-02T09:33:54;6.28;;;3.00;;
46415;SDS011;32620;51.704;7.822;2024-03-02T09:36:21;5.18;;;3.67;;
46415;SDS011;32620;51.704;7.822;2024-03-02T09:38:47;4.05;;;3.17;;
46415;SDS011;32620;51.704;7.822;2024-03-02T09:41:13;4.10;;;2.75;;
46415;SDS011;32620;51.704;7.822;2024-03-02T09:43:40;4.18;;;3.42;;
46415;SDS011;32620;51.704;7.822;2024-03-02T09:46:06;4.78;;;3.00;;
46415;SDS011;32620;51.704;7.822;2024-03-02T09:48:34;5.43;;;2.75;;
46415;SDS011;32620;51.704;7.822;2024-03-02T09:51:00;5.57;;;2.85;;
46415;SDS011;32620;51.704;7.822;2024-03-02T09:53:29;3.67;;;3.00;;
46415;SDS011;32620;51.704;7.822;2024-03-02T09:55:57;4.63;;;3.08;;
46415;SDS011;32620;51.704;7.822;2024-03-02T09:58:23;4.88;;;2.83;;
46415;SDS011;32620;51.704;7.822;2024-03-02T10:00:49;4.82;;;3.15;;
46415;SDS011;32620;51.704;7.822;2024-03-02T10:03:14;4.13;;;2.70;;
46415;SDS011;32620;51.704;7.822;2024-03-02T10:05:40;4.22;;;2.42;;
46415;SDS011;32620;51.704;7.822;2024-03-02T10:08:05;4.97;;;2.60;;
46415;SDS011;32620;51.704;7.822;2024-03-02T10:10:35;3.83;;;2.53;;
46415;SDS011;32620;51.704;7.822;2024-03-02T10:13:06;4.30;;;2.83;;
46415;SDS011;32620;51.704;7.822;2024-03-02T10:15:33;3.53;;;2.30;;
46415;SDS011;32620;51.704;7.822;2024-03-02T10:17:59;2.38;;;2.08;;
46415;SDS011;32620;51.704;7.822;2024-03-02T10:20:25;3.30;;;2.58;;
46415;SDS011;32620;51.704;7.822;2024-03-02T10:22:53;5.57;;;2.53;;
46415;SDS011;32620;51.704;7.822;2024-03-02T10:25:34;5.53;;;2.38;;
46415;SDS011;32620;51.704;7.822;2024-03-02T10:28:00;2.60;;;2.20;;
46415;SDS011;32620;51.704;7.822;2024-03-02T10:30:27;2.80;;;1.98;;
46415;SDS011;32620;51.704;7.822;2024-03-02T10:32:53;2.50;;;1.90;;
46415;SDS011;32620;51.704;7.822;2024-03-02T10:35:20;2.63;;;1.92;;
46415;SDS011;32620;51.704;7.822;2024-03-02T10:37:47;2.33;;;1.88;;
46415;SDS011;32620;51.704;7.822;2024-03-02T10:40:13;2.20;;;1.63;;
46415;SDS011;32620;51.704;7.822;2024-03-02T10:42:39;3.20;;;1.80;;
46415;SDS011;32620;51.704;7.822;2024-03-02T10:45:06;3.53;;;1.67;;
46415;SDS011;32620;51.704;7.822;2024-03-02T10:47:35;3.53;;;1.70;;
46415;SDS011;32620;51.704;7.822;2024-03-02T10:50:04;2.70;;;1.70;;
46415;SDS011;32620;51.704;7.822;2024-03-02T10:52:33;3.38;;;1.60;;
46415;SDS011;32620;51.704;7.822;2024-03-02T10:55:00;1.92;;;1.60;;
46415;SDS011;32620;51.704;7.822;2024-03-02T10:57:25;3.03;;;1.90;;
46415;SDS011;32620;51.704;7.822;2024-03-02T10:59:57;4.05;;;2.38;;
46415;SDS011;32620;51.704;7.822;2024-03-02T11:02:28;5.20;;;2.10;;
46415;SDS011;32620;51.704;7.822;2024-03-02T11:04:55;5.95;;;2.00;;
46415;SDS011;32620;51.704;7.822;2024-03-02T11:07:24;2.58;;;1.80;;
46415;SDS011;32620;51.704;7.822;2024-03-02T11:09:54;2.72;;;1.77;;
46415;SDS011;32620;51.704;7.822;2024-03-02T11:12:23;4.55;;;1.92;;
46415;SDS011;32620;51.704;7.822;2024-03-02T11:14:54;2.25;;;1.73;;
46415;SDS011;32620;51.704;7.822;2024-03-02T11:17:21;2.05;;;1.85;;
46415;SDS011;32620;51.704;7.822;2024-03-02T11:19:47;3.70;;;2.00;;
46415;SDS011;32620;51.704;7.822;2024-03-02T11:22:13;1.85;;;1.75;;
46415;SDS011;32620;51.704;7.822;2024-03-02T11:24:47;2.97;;;1.90;;
46415;SDS011;32620;51.704;7.822;2024-03-02T11:27:14;3.10;;;1.83;;
46415;SDS011;32620;51.704;7.822;2024-03-02T11:32:20;2.85;;;2.00;;
46415;SDS011;32620;51.704;7.822;2024-03-02T11:34:48;2.85;;;1.92;;
46415;SDS011;32620;51.704;7.822;2024-03-02T11:37:15;2.30;;;1.80;;
46415;SDS011;32620;51.704;7.822;2024-03-02T11:39:42;1.90;;;1.70;;
46415;SDS011;32620;51.704;7.822;2024-03-02T11:42:10;2.20;;;1.85;;
46415;SDS011;32620;51.704;7.822;2024-03-02T11:44:39;2.17;;;1.98;;
46415;SDS011;32620;51.704;7.822;2024-03-02T11:47:06;2.53;;;1.90;;
46415;SDS011;32620;51.704;7.822;2024-03-02T11:49:44;1.92;;;1.73;;
46415;SDS011;32620;51.704;7.822;2024-03-02T11:52:17;2.10;;;1.40;;
46415;SDS011;32620;51.704;7.822;2024-03-02T11:54:44;2.55;;;1.40;;
46415;SDS011;32620;51.704;7.822;2024-03-02T11:57:13;1.77;;;1.30;;
46415;SDS011;32620;51.704;7.822;2024-03-02T11:59:40;2.65;;;1.50;;
46415;SDS011;32620;51.704;7.822;2024-03-02T12:02:06;3.03;;;1.73;;
46415;SDS011;32620;51.704;7.822;2024-03-02T12:04:37;3.75;;;1.80;;
46415;SDS011;32620;51.704;7.822;2024-03-02T12:07:03;2.63;;;1.50;;
46415;SDS011;32620;51.704;7.822;2024-03-02T12:09:29;3.47;;;1.70;;
46415;SDS011;32620;51.704;7.822;2024-03-02T12:12:01;2.17;;;1.60;;
46415;SDS011;32620;51.704;7.822;2024-03-02T12:14:28;1.60;;;1.50;;
46415;SDS011;32620;51.704;7.822;2024-03-02T12:16:54;3.55;;;1.52;;
46415;SDS011;32620;51.704;7.822;2024-03-02T12:19:20;3.05;;;1.67;;
46415;SDS011;32620;51.704;7.822;2024-03-02T12:21:46;2.05;;;1.10;;
46415;SDS011;32620;51.704;7.822;2024-03-02T12:24:12;2.35;;;1.60;;
46415;SDS011;32620;51.704;7.822;2024-03-02T12:26:38;2.60;;;1.70;;
46415;SDS011;32620;51.704;7.822;2024-03-02T12:29:03;1.95;;;1.30;;
46415;SDS011;32620;51.704;7.822;2024-03-02T12:31:29;1.27;;;1.17;;
46415;SDS011;32620;51.704;7.822;2024-03-02T12:33:55;2.42;;;1.20;;
46415;SDS011;32620;51.704;7.822;2024-03-02T12:36:20;4.65;;;1.55;;
46415;SDS011;32620;51.704;7.822;2024-03-02T12:38:47;1.65;;;1.27;;
46415;SDS011;32620;51.704;7.822;2024-03-02T12:41:14;2.38;;;1.30;;
46415;SDS011;32620;51.704;7.822;2024-03-02T12:43:41;1.63;;;1.30;;
46415;SDS011;32620;51.704;7.822;2024-03-02T12:46:06;2.35;;;1.40;;
46415;SDS011;32620;51.704;7.822;2024-03-02T12:48:32;2.15;;;1.13;;
46415;SDS011;32620;51.704;7.822;2024-03-02T12:50:58;3.05;;;1.13;;
46415;SDS011;32620;51.704;7.822;2024-03-02T12:53:24;1.27;;;1.10;;
46415;SDS011;32620;51.704;7.822;2024-03-02T12:55:49;1.73;;;1.23;;
46415;SDS011;32620;51.704;7.822;2024-03-02T12:58:18;0.88;;;0.85;;
46415;SDS011;32620;51.704;7.822;2024-03-02T13:00:44;1.60;;;1.20;;
46415;SDS011;32620;51.704;7.822;2024-03-02T13:03:10;1.00;;;0.80;;
46415;SDS011;32620;51.704;7.822;2024-03-02T13:05:36;1.38;;;1.00;;
46415;SDS011;32620;51.704;7.822;2024-03-02T13:08:02;2.08;;;1.10;;
46415;SDS011;32620;51.704;7.822;2024-03-02T13:10:29;1.45;;;0.93;;
46415;SDS011;32620;51.704;7.822;2024-03-02T13:12:56;1.55;;;1.05;;
46415;SDS011;32620;51.704;7.822;2024-03-02T13:15:21;1.30;;;1.10;;
46415;SDS011;32620;51.704;7.822;2024-03-02T13:17:47;2.63;;;1.13;;
46415;SDS011;32620;51.704;7.822;2024-03-02T13:20:14;1.90;;;1.08;;
46415;SDS011;32620;51.704;7.822;2024-03-02T13:22:40;1.50;;;1.17;;
46415;SDS011;32620;51.704;7.822;2024-03-02T13:25:05;1.33;;;1.10;;
46415;SDS011;32620;51.704;7.822;2024-03-02T13:27:33;2.08;;;1.70;;
46415;SDS011;32620;51.704;7.822;2024-03-02T13:29:58;1.20;;;1.10;;
46415;SDS011;32620;51.704;7.822;2024-03-02T13:32:24;1.73;;;1.55;;
46415;SDS011;32620;51.704;7.822;2024-03-02T13:34:50;1.73;;;1.50;;
46415;SDS011;32620;51.704;7.822;2024-03-02T13:37:16;3.72;;;2.88;;
46415;SDS011;32620;51.704;7.822;2024-03-02T13:39:42;3.20;;;2.00;;
46415;SDS011;32620;51.704;7.822;2024-03-02T13:42:09;2.97;;;1.75;;
46415;SDS011;32620;51.704;7.822;2024-03-02T13:44:36;2.97;;;2.28;;
46415;SDS011;32620;51.704;7.822;2024-03-02T13:47:02;3.60;;;1.30;;
46415;SDS011;32620;51.704;7.822;2024-03-02T13:49:28;2.00;;;1.00;;
46415;SDS011;32620;51.704;7.822;2024-03-02T13:51:58;2.63;;;1.33;;
46415;SDS011;32620;51.704;7.822;2024-03-02T13:54:25;1.38;;;1.23;;
46415;SDS011;32620;51.704;7.822;2024-03-02T13:56:51;2.33;;;1.25;;
46415;SDS011;32620;51.704;7.822;2024-03-02T13:59:17;1.15;;;1.00;;
46415;SDS011;32620;51.704;7.822;2024-03-02T14:01:43;1.10;;;1.00;;
46415;SDS011;32620;51.704;7.822;2024-03-02T14:04:09;2.53;;;1.10;;
46415;SDS011;32620;51.704;7.822;2024-03-02T14:06:35;4.05;;;1.25;;
46415;SDS011;32620;51.704;7.822;2024-03-02T14:09:00;1.20;;;1.00;;
46415;SDS011;32620;51.704;7.822;2024-03-02T14:11:26;2.53;;;1.05;;
46415;SDS011;32620;51.704;7.822;2024-03-02T14:13:52;2.03;;;0.90;;
46415;SDS011;32620;51.704;7.822;2024-03-02T14:16:19;1.48;;;1.15;;
46415;SDS011;32620;51.704;7.822;2024-03-02T14:18:45;2.47;;;1.20;;
46415;SDS011;32620;51.704;7.822;2024-03-02T14:21:11;2.28;;;1.45;;
46415;SDS011;32620;51.704;7.822;2024-03-02T14:23:37;2.25;;;1.58;;
46415;SDS011;32620;51.704;7.822;2024-03-02T14:26:02;3.33;;;1.73;;
46415;SDS011;32620;51.704;7.822;2024-03-02T14:28:28;1.67;;;1.35;;
46415;SDS011;32620;51.704;7.822;2024-03-02T14:30:54;1.88;;;1.50;;
46415;SDS011;32620;51.704;7.822;2024-03-02T14:33:19;3.17;;;1.20;;
46415;SDS011;32620;51.704;7.822;2024-03-02T14:35:45;1.98;;;1.20;;
46415;SDS011;32620;51.704;7.822;2024-03-02T14:38:11;1.13;;;1.02;;
46415;SDS011;32620;51.704;7.822;2024-03-02T14:40:37;2.08;;;1.10;;
46415;SDS011;32620;51.704;7.822;2024-03-02T14:43:03;1.45;;;1.17;;
46415;SDS011;32620;51.704;7.822;2024-03-02T14:45:29;0.95;;;0.90;;